ENRA/MQN METAR and TAF weather

Enter ICAO airport designator
Station Type Date Time Source
ENRA METAR 2018/10/16 14:50 UTC NOAA

ENRA 161450Z VRB01KT 9999 FEW010 BKN040 07/06 Q1015


Station Type Date Time Source
ENRA Decoded METAR 2018/10/16 14:50 UTC NOAA

Mo I Rana / Rossvoll, Norway (ENRA) 66-22N 014-18E 70M
Oct 16, 2018 - 10:50 AM EDT / 2018.10.16 1450 UTC
Wind: Variable at 1 MPH (1 KT):0
Visibility: greater than 7 mile(s):0
Sky conditions: mostly cloudy
Temperature: 44 F (7 C)
Dew Point: 42 F (6 C)
Relative Humidity: 93%
Pressure (altimeter): 29.97 in. Hg (1015 hPa)
ob: ENRA 161450Z VRB01KT 9999 FEW010 BKN040 07/06 Q1015
cycle: 15

Station Type Date Time Source
ENRA TAF UTC NOAA

Error!


Example: see airport list